createdAt,value
2023-02-07T00:01:40.857Z,0.20
2023-02-07T00:06:44.107Z,0.30
2023-02-07T00:11:47.316Z,0.40
2023-02-07T00:16:50.654Z,0.30
2023-02-07T00:21:53.821Z,0.30
2023-02-07T00:26:57.038Z,0.22
2023-02-07T00:32:00.476Z,0.34
2023-02-07T00:37:05.174Z,0.40
2023-02-07T00:42:08.813Z,0.30
2023-02-07T00:47:11.924Z,0.28
2023-02-07T00:52:15.024Z,0.20
2023-02-07T00:57:18.153Z,0.30
2023-02-07T01:02:21.337Z,0.36
2023-02-07T01:07:24.449Z,0.30
2023-02-07T01:12:27.559Z,0.20
2023-02-07T01:17:30.570Z,0.20
2023-02-07T01:22:33.873Z,0.26
2023-02-07T01:27:37.803Z,0.30
2023-02-07T01:32:40.904Z,0.30
2023-02-07T01:37:44.009Z,0.22
2023-02-07T01:42:47.214Z,0.24
2023-02-07T01:47:54.129Z,0.30
2023-02-07T01:53:01.979Z,0.20
2023-02-07T01:58:07.323Z,0.18
2023-02-07T02:03:10.492Z,0.20
2023-02-07T02:08:13.602Z,0.20
2023-02-07T02:13:39.253Z,0.20
2023-02-07T02:18:58.742Z,0.20
2023-02-07T02:24:23.164Z,0.30
2023-02-07T02:29:47.476Z,0.40
2023-02-07T02:35:27.403Z,0.30
2023-02-07T02:40:57.645Z,0.28
2023-02-07T02:46:12.694Z,0.28
2023-02-07T02:51:16.247Z,0.30
2023-02-07T02:56:59.124Z,0.30
2023-02-07T03:02:36.499Z,0.24
2023-02-07T03:07:57.441Z,0.30
2023-02-07T03:13:31.814Z,0.24
2023-02-07T03:19:05.503Z,0.20
2023-02-07T03:24:23.354Z,0.20
2023-02-07T03:29:30.854Z,0.22
2023-02-07T03:34:40.400Z,0.30
2023-02-07T03:39:43.920Z,0.30
2023-02-07T03:44:49.634Z,0.20
2023-02-07T03:49:52.835Z,0.30
2023-02-07T03:54:55.998Z,0.38
2023-02-07T03:59:59.141Z,0.30
2023-02-07T04:05:02.420Z,0.20
2023-02-07T04:10:07.031Z,0.20
2023-02-07T04:15:10.995Z,0.10
2023-02-07T04:20:14.325Z,0.20
2023-02-07T04:25:17.506Z,0.30
2023-02-07T04:30:20.827Z,0.20
2023-02-07T04:35:24.436Z,0.20
2023-02-07T04:40:27.460Z,0.20
2023-02-07T04:45:30.448Z,0.30
2023-02-07T04:50:33.545Z,0.30
2023-02-07T04:55:37.715Z,0.20
2023-02-07T05:00:41.808Z,0.18
2023-02-07T05:05:45.836Z,0.10
2023-02-07T05:10:56.692Z,0.20
2023-02-07T05:16:04.400Z,0.20
2023-02-07T05:21:07.550Z,0.14
2023-02-07T05:26:10.783Z,0.10
2023-02-07T05:31:13.927Z,0.10
2023-02-07T05:36:17.302Z,0.20
2023-02-07T05:41:20.399Z,0.20
2023-02-07T05:46:23.577Z,0.20
2023-02-07T05:51:27.021Z,0.20
2023-02-07T05:56:30.122Z,0.10
2023-02-07T06:01:33.319Z,0.10
2023-02-07T06:06:36.942Z,0.18
2023-02-07T06:11:40.040Z,0.10
2023-02-07T06:16:43.152Z,0.08
2023-02-07T06:21:47.081Z,0.10
2023-02-07T06:26:50.313Z,0.20
2023-02-07T06:31:53.415Z,0.10
2023-02-07T06:36:56.491Z,0.10
2023-02-07T06:41:59.510Z,0.20
2023-02-07T06:47:02.601Z,0.28
2023-02-07T06:52:05.712Z,0.20
2023-02-07T06:57:09.019Z,0.20
2023-02-07T07:02:13.058Z,0.20
2023-02-07T07:07:16.166Z,0.28
2023-02-07T07:12:19.265Z,0.40
2023-02-07T07:17:22.393Z,0.50
2023-02-07T07:22:26.708Z,0.50
2023-02-07T07:27:29.828Z,0.50
2023-02-07T07:32:34.439Z,0.50
2023-02-07T07:37:37.774Z,0.70
2023-02-07T07:42:40.980Z,0.86
2023-02-07T07:47:44.076Z,0.88
2023-02-07T07:52:47.224Z,0.90
2023-02-07T07:57:50.497Z,1.00
2023-02-07T08:02:53.629Z,1.18
2023-02-07T08:07:56.708Z,1.30
2023-02-07T08:12:59.728Z,1.22
2023-02-07T08:18:03.127Z,1.30
2023-02-07T08:23:06.338Z,1.50
2023-02-07T08:28:10.606Z,1.60
2023-02-07T08:33:15.586Z,1.60
2023-02-07T08:38:18.927Z,1.70
2023-02-07T08:43:22.036Z,1.70
2023-02-07T08:48:25.185Z,1.74
2023-02-07T08:53:28.249Z,1.80
2023-02-07T08:58:33.667Z,1.80
2023-02-07T09:03:38.735Z,1.80
2023-02-07T09:08:41.801Z,1.90
2023-02-07T09:13:46.585Z,2.18
2023-02-07T09:18:50.376Z,2.34
2023-02-07T09:23:54.564Z,2.40
2023-02-07T09:28:57.887Z,2.50
2023-02-07T09:34:03.033Z,2.70
2023-02-07T09:39:07.499Z,2.70
2023-02-07T09:44:37.370Z,2.80
2023-02-07T09:49:53.061Z,2.84
2023-02-07T09:55:00.950Z,3.04
2023-02-07T10:00:29.738Z,3.10
2023-02-07T10:05:45.821Z,3.06
2023-02-07T10:11:03.899Z,3.10
2023-02-07T10:16:38.030Z,3.10
2023-02-07T10:22:26.712Z,3.20
2023-02-07T10:27:42.783Z,3.20
2023-02-07T10:32:47.865Z,3.20
2023-02-07T10:37:57.028Z,3.40
2023-02-07T10:43:30.328Z,3.40
2023-02-07T10:48:35.636Z,3.50
2023-02-07T10:53:55.004Z,3.40
2023-02-07T10:59:00.613Z,3.50
2023-02-07T11:04:24.186Z,3.50
2023-02-07T11:09:27.856Z,3.50
2023-02-07T11:14:31.093Z,3.60
2023-02-07T11:19:34.368Z,3.60
2023-02-07T11:24:38.629Z,3.50
2023-02-07T11:30:04.545Z,3.50
2023-02-07T11:35:09.817Z,3.40
2023-02-07T11:40:38.801Z,3.50
2023-02-07T11:45:47.624Z,3.50
2023-02-07T11:50:56.203Z,3.50
2023-02-07T11:55:59.808Z,3.40
2023-02-07T12:01:06.886Z,3.22
2023-02-07T12:06:19.343Z,3.20
2023-02-07T12:11:31.766Z,3.40
2023-02-07T12:16:44.899Z,3.50
2023-02-07T12:22:20.316Z,3.30
2023-02-07T12:27:34.941Z,3.20
2023-02-07T12:33:01.510Z,3.20
2023-02-07T12:38:25.740Z,3.20
2023-02-07T12:43:36.147Z,3.20
2023-02-07T12:49:40.826Z,3.30
2023-02-07T12:55:18.434Z,3.40
2023-02-07T13:00:38.340Z,3.50
2023-02-07T13:06:15.655Z,3.50
2023-02-07T13:11:54.694Z,3.40
2023-02-07T13:17:19.200Z,3.32
2023-02-07T13:22:47.517Z,3.30
2023-02-07T13:27:56.194Z,3.30
2023-02-07T13:33:32.734Z,3.20
2023-02-07T13:38:48.951Z,3.20
2023-02-07T13:44:16.338Z,3.10
2023-02-07T13:49:44.750Z,3.10
2023-02-07T13:55:17.625Z,3.10
2023-02-07T14:00:25.362Z,3.10
2023-02-07T14:05:36.801Z,3.00
2023-02-07T14:10:53.359Z,2.90
2023-02-07T14:16:13.176Z,2.80
2023-02-07T14:21:19.773Z,2.76
2023-02-07T14:26:38.522Z,2.70
2023-02-07T14:38:08.801Z,2.52
2023-02-07T14:43:11.929Z,2.50
2023-02-07T14:48:42.455Z,2.50
2023-02-07T14:53:58.964Z,2.40
2023-02-07T14:59:02.805Z,2.24
2023-02-07T15:04:10.895Z,2.10
2023-02-07T15:09:28.472Z,2.10
2023-02-07T15:14:34.760Z,2.10
2023-02-07T15:19:41.917Z,2.10
2023-02-07T15:24:51.457Z,2.00
2023-02-07T15:30:06.712Z,1.90
2023-02-07T15:35:24.141Z,1.86
2023-02-07T15:40:27.655Z,1.80
2023-02-07T15:45:33.719Z,1.70
2023-02-07T15:50:38.514Z,1.70
2023-02-07T15:55:48.730Z,1.70
2023-02-07T16:00:53.444Z,1.70
2023-02-07T16:06:22.064Z,1.50
2023-02-07T16:11:28.004Z,1.40
2023-02-07T16:16:53.935Z,1.30
2023-02-07T16:22:08.600Z,1.20
2023-02-07T16:27:24.578Z,1.10
2023-02-07T16:32:33.474Z,1.10
2023-02-07T16:37:36.549Z,1.02
2023-02-07T16:42:41.502Z,1.00
2023-02-07T16:47:45.014Z,1.00
2023-02-07T16:52:51.123Z,1.02
2023-02-07T16:57:56.249Z,1.10
2023-02-07T17:02:59.486Z,1.04
2023-02-07T17:08:02.663Z,1.00
2023-02-07T17:13:05.888Z,1.00
2023-02-07T17:18:12.722Z,1.08
2023-02-07T17:23:15.791Z,1.02
2023-02-07T17:28:19.125Z,1.00
2023-02-07T17:33:22.814Z,0.90
2023-02-07T17:38:26.006Z,0.90
2023-02-07T17:43:29.319Z,0.80
2023-02-07T17:48:33.656Z,0.80
2023-02-07T17:53:36.773Z,0.80
2023-02-07T17:58:39.865Z,0.84
2023-02-07T18:03:43.078Z,0.90
2023-02-07T18:08:47.332Z,0.88
2023-02-07T18:13:50.658Z,0.80
2023-02-07T18:18:57.234Z,0.80
2023-02-07T18:24:00.326Z,0.70
2023-02-07T18:29:03.923Z,0.70
2023-02-07T18:34:07.666Z,0.62
2023-02-07T18:39:13.932Z,0.60
2023-02-07T18:44:17.055Z,0.60
2023-02-07T18:49:20.552Z,0.62
2023-02-07T18:54:24.698Z,0.70
2023-02-07T18:59:28.608Z,0.72
2023-02-07T19:04:32.022Z,0.80
2023-02-07T19:09:35.460Z,0.70
2023-02-07T19:14:38.653Z,0.70
2023-02-07T19:19:43.384Z,0.66
2023-02-07T19:24:46.596Z,0.60
2023-02-07T19:29:49.908Z,0.54
2023-02-07T19:34:53.331Z,0.50
2023-02-07T19:39:56.733Z,0.44
2023-02-07T19:45:00.015Z,0.40
2023-02-07T19:50:03.461Z,0.30
2023-02-07T19:55:07.588Z,0.40
2023-02-07T20:00:12.043Z,0.44
2023-02-07T20:05:15.144Z,0.50
2023-02-07T20:10:20.137Z,0.52
2023-02-07T20:15:23.293Z,0.50
2023-02-07T20:20:26.610Z,0.50
2023-02-07T20:25:33.815Z,0.42
2023-02-07T20:30:44.100Z,0.40
2023-02-07T20:35:47.194Z,0.40
2023-02-07T20:40:50.296Z,0.30
2023-02-07T20:46:14.441Z,0.30
2023-02-07T20:51:17.705Z,0.30
2023-02-07T20:56:20.918Z,0.20
2023-02-07T21:01:28.585Z,0.20
2023-02-07T21:06:34.287Z,0.30
2023-02-07T21:11:45.300Z,0.40
2023-02-07T21:16:49.526Z,0.42
2023-02-07T21:21:55.200Z,0.50
2023-02-07T21:26:59.011Z,0.50
2023-02-07T21:32:03.124Z,0.50
2023-02-07T21:37:06.349Z,0.50
2023-02-07T21:42:09.652Z,0.50
2023-02-07T21:47:12.768Z,0.50
2023-02-07T21:52:16.686Z,0.50
2023-02-07T21:57:19.791Z,0.50
2023-02-07T22:02:22.928Z,0.50
2023-02-07T22:07:26.148Z,0.50
2023-02-07T22:12:29.855Z,0.50
2023-02-07T22:17:33.068Z,0.60
2023-02-07T22:22:36.257Z,0.70
2023-02-07T22:27:39.561Z,0.78
2023-02-07T22:32:42.872Z,0.80
2023-02-07T22:37:46.176Z,0.74
2023-02-07T22:42:49.458Z,0.70
2023-02-07T22:47:52.603Z,0.62
2023-02-07T22:52:56.639Z,0.60
2023-02-07T22:58:00.138Z,0.62
2023-02-07T23:03:03.346Z,0.60
2023-02-07T23:08:06.972Z,0.60
2023-02-07T23:13:10.931Z,0.60
2023-02-07T23:18:15.836Z,0.60
2023-02-07T23:23:19.250Z,0.50
2023-02-07T23:28:22.602Z,0.60
2023-02-07T23:33:25.806Z,0.60
2023-02-07T23:38:29.081Z,0.70
2023-02-07T23:43:32.290Z,0.70
2023-02-07T23:48:38.536Z,0.64
2023-02-07T23:53:43.500Z,0.60
2023-02-07T23:58:48.655Z,0.60
